Check out our new BloomSky Weather System.

Active alerts


No alerts


Thunder radar  blitzortung!


Rain radar more information rain snow radar


Visit our other weather sites:

Template documentation
and downloads

And another site



Weather Underground History page Text

Daily Summary for April 20, 2017 Units:  Metric    English   Both
« Previous Day
Next Day »
Daily Weekly Monthly Yearly Custom
  High: Low: Average:
Temperature: -17.8 °C 20.4 °C 24.8 °C
Dew Point: -17.8 °C 20.1 °C 21 °C
Humidity: Humidity % 55 % 81 %
Wind Speed: 0 km/h 0 km/h 4 km/h
Wind Gust: 0 km/h - -
Wind:- - SE
Pressure: 0 hPa 1013.4 hPa -
Precipitation: 0 mm    
Historical Graphs
 
 
Tabular Data for April 20, 2017
Time Temperature Dew Point Pressure Wind Wind Speed Wind Gust Humidity Rainfall Rate (Hourly)
-17.8 °C -17.8 °C 0 hPa Calm     Humidity % 0 mm
00:03 22.8 °C 21.4 °C 1017.2 hPa East 9.7 km/h 9.7 km/h 92 % 0 mm
00:08 22.8 °C 21.4 °C 1017.2 hPa SE 8 km/h 12.9 km/h 92 % 0 mm
00:13 22.8 °C 21.4 °C 1017.2 hPa East 8 km/h 12.9 km/h 92 % 0 mm
00:18 22.8 °C 21.4 °C 1017.2 hPa SE 6.4 km/h 12.9 km/h 92 % 0 mm
00:23 22.7 °C 21.3 °C 1017.2 hPa SE 6.4 km/h 12.9 km/h 92 % 0 mm
00:28 22.7 °C 21.3 °C 1017.2 hPa SE 4.8 km/h 12.9 km/h 92 % 0 mm
00:33 22.7 °C 21.5 °C 1017.2 hPa ESE 6.4 km/h 12.9 km/h 93 % 0 mm
00:38 22.7 °C 21.5 °C 1017.2 hPa SE 4.8 km/h 11.3 km/h 93 % 0 mm
00:43 22.8 °C 21.6 °C 1017.2 hPa SE 4.8 km/h 11.3 km/h 93 % 0 mm
00:48 22.7 °C 21.3 °C 1017.2 hPa SSE 3.2 km/h 11.3 km/h 92 % 0 mm
00:53 22.7 °C 21.5 °C 1017.2 hPa SSE 3.2 km/h 11.3 km/h 93 % 0 mm
00:58 22.6 °C 21.4 °C 1017.2 hPa SE 4.8 km/h 11.3 km/h 93 % 0 mm
01:03 22.6 °C 21.4 °C 1017.2 hPa SE 3.2 km/h 11.3 km/h 93 % 0 mm
01:08 22.6 °C 21.4 °C 1016.8 hPa SSE 1.6 km/h 11.3 km/h 93 % 0 mm
01:13 22.5 °C 21.3 °C 1016.8 hPa SSW 8 km/h 9.7 km/h 93 % 0 mm
01:18 22.5 °C 21.3 °C 1016.8 hPa SE 3.2 km/h 9.7 km/h 93 % 0 mm
01:23 22.4 °C 21.4 °C 1016.8 hPa East 6.4 km/h 9.7 km/h 94 % 0 mm
01:28 22.4 °C 21.4 °C 1016.8 hPa ESE 6.4 km/h 11.3 km/h 94 % 0 mm
01:33 22.4 °C 21.4 °C 1016.8 hPa SE 6.4 km/h 12.9 km/h 94 % 0 mm
01:38 22.4 °C 21.4 °C 1016.8 hPa ESE 4.8 km/h 12.9 km/h 94 % 0 mm
01:43 22.4 °C 21.4 °C 1016.8 hPa SE 1.6 km/h 12.9 km/h 94 % 0 mm
01:48 22.3 °C 21.3 °C 1016.8 hPa SSE 1.6 km/h 9.7 km/h 94 % 0 mm
01:53 22.3 °C 21.3 °C 1016.8 hPa SE 3.2 km/h 9.7 km/h 94 % 0 mm
01:58 22.3 °C 21.3 °C 1016.5 hPa SE 3.2 km/h 8 km/h 94 % 0 mm
02:03 22.3 °C 21.3 °C 1016.5 hPa SSE 4.8 km/h 8 km/h 94 % 0 mm
02:08 22.2 °C 21.2 °C 1016.5 hPa SSE 3.2 km/h 11.3 km/h 94 % 0 mm
02:13 22.2 °C 21.2 °C 1016.1 hPa South 1.6 km/h 11.3 km/h 94 % 0 mm
02:18 22.2 °C 21.4 °C 1016.1 hPa SE 4.8 km/h 11.3 km/h 95 % 0 mm
02:24 22.1 °C 21.3 °C 1016.1 hPa SE 4.8 km/h 9.7 km/h 95 % 0 mm
02:29 22.1 °C 21.3 °C 1016.1 hPa Calm   8 km/h 95 % 0 mm
02:34 22.1 °C 21.3 °C 1016.1 hPa Calm   8 km/h 95 % 0 mm
02:39 22.1 °C 21.3 °C 1016.1 hPa Calm   6.4 km/h 95 % 0 mm
02:44 22 °C 21.2 °C 1016.1 hPa Calm   4.8 km/h 95 % 0 mm
02:49 22 °C 21.2 °C 1016.1 hPa SSE 1.6 km/h 4.8 km/h 95 % 0 mm
02:54 21.9 °C 21.1 °C 1016.1 hPa Calm   4.8 km/h 95 % 0 mm
02:59 21.9 °C 21.1 °C 1016.1 hPa East 3.2 km/h 4.8 km/h 95 % 0 mm
03:04 21.9 °C 21.2 °C 1016.1 hPa SE 1.6 km/h 3.2 km/h 96 % 0 mm
03:09 21.9 °C 21.2 °C 1016.1 hPa SE 1.6 km/h 4.8 km/h 96 % 0 mm
03:14 21.9 °C 21.2 °C 1016.1 hPa ESE 1.6 km/h 4.8 km/h 96 % 0 mm
03:19 21.9 °C 21.2 °C 1016.1 hPa SE 1.6 km/h 4.8 km/h 96 % 0 mm
03:24 21.9 °C 21.2 °C 1016.1 hPa Calm   4.8 km/h 96 % 0 mm
03:29 21.9 °C 21.2 °C 1016.1 hPa Calm   4.8 km/h 96 % 0 mm
03:34 21.9 °C 21.2 °C 1016.1 hPa Calm   4.8 km/h 96 % 0 mm
03:39 21.9 °C 21.2 °C 1015.8 hPa Calm   3.2 km/h 96 % 0 mm
03:44 21.9 °C 21.2 °C 1015.8 hPa Calm   3.2 km/h 96 % 0 mm
03:49 21.9 °C 21.2 °C 1015.8 hPa East 1.6 km/h 3.2 km/h 96 % 0 mm
03:54 21.9 °C 21.2 °C 1015.8 hPa Calm   3.2 km/h 96 % 0 mm
03:59 21.9 °C 21.2 °C 1015.8 hPa Calm   3.2 km/h 96 % 0 mm
04:04 21.9 °C 21.2 °C 1015.8 hPa Calm   3.2 km/h 96 % 0 mm
04:09 21.8 °C 21.1 °C 1015.8 hPa Calm   3.2 km/h 96 % 0 mm
04:14 21.8 °C 21.1 °C 1015.8 hPa Calm   1.6 km/h 96 % 0 mm
04:19 21.8 °C 21.1 °C 1015.8 hPa Calm   1.6 km/h 96 % 0 mm
04:24 21.7 °C 21 °C 1015.8 hPa Calm   1.6 km/h 96 % 0 mm
04:29 21.7 °C 21.2 °C 1015.8 hPa SE 1.6 km/h 3.2 km/h 97 % 0 mm
04:34 21.7 °C 21.2 °C 1015.8 hPa SE 1.6 km/h 3.2 km/h 97 % 0 mm
04:39 21.6 °C 21.1 °C 1015.8 hPa Calm   3.2 km/h 97 % 0 mm
04:44 21.6 °C 21.1 °C 1015.8 hPa Calm   3.2 km/h 97 % 0 mm
04:49 21.5 °C 21 °C 1015.8 hPa Calm   3.2 km/h 97 % 0 mm
04:54 21.4 °C 20.9 °C 1015.8 hPa ESE 1.6 km/h 3.2 km/h 97 % 0 mm
04:59 21.4 °C 20.9 °C 1015.5 hPa ESE 3.2 km/h 4.8 km/h 97 % 0 mm
05:04 21.4 °C 20.9 °C 1015.5 hPa SE 1.6 km/h 4.8 km/h 97 % 0 mm
05:09 21.3 °C 20.8 °C 1015.5 hPa Calm   4.8 km/h 97 % 0 mm
05:14 21.3 °C 20.8 °C 1015.5 hPa ESE 1.6 km/h 4.8 km/h 97 % 0 mm
05:19 21.3 °C 20.8 °C 1015.8 hPa Calm   4.8 km/h 97 % 0 mm
05:24 21.2 °C 20.7 °C 1015.8 hPa Calm   4.8 km/h 97 % 0 mm
05:29 21.1 °C 20.6 °C 1015.8 hPa Calm   3.2 km/h 97 % 0 mm
05:34 21.1 °C 20.6 °C 1015.8 hPa Calm   3.2 km/h 97 % 0 mm
05:39 21.1 °C 20.6 °C 1015.8 hPa Calm   3.2 km/h 97 % 0 mm
05:44 21 °C 20.5 °C 1015.8 hPa Calm   1.6 km/h 97 % 0 mm
05:45 20.9 °C 20.4 °C 1015.8 hPa Calm   1.6 km/h 97 % 0 mm
05:50 20.9 °C 20.4 °C 1015.8 hPa Calm   1.6 km/h 97 % 0 mm
05:55 20.9 °C 20.4 °C 1015.8 hPa Calm   1.6 km/h 97 % 0 mm
06:00 20.9 °C 20.6 °C 1015.8 hPa Calm   1.6 km/h 98 % 0 mm
06:05 20.9 °C 20.6 °C 1015.8 hPa Calm   1.6 km/h 98 % 0 mm
06:06 20.9 °C 20.6 °C 1015.8 hPa Calm   1.6 km/h 98 % 0 mm
06:11 20.8 °C 20.5 °C 1015.8 hPa Calm   1.6 km/h 98 % 0 mm
06:16 20.8 °C 20.5 °C 1015.8 hPa Calm   1.6 km/h 98 % 0 mm
06:21 20.7 °C 20.4 °C 1016.1 hPa Calm     98 % 0 mm
06:26 20.7 °C 20.4 °C 1016.1 hPa Calm     98 % 0 mm
06:31 20.6 °C 20.3 °C 1016.1 hPa Calm     98 % 0 mm
06:36 20.6 °C 20.3 °C 1016.1 hPa Calm     98 % 0 mm
06:41 20.5 °C 20.2 °C 1016.1 hPa Calm   1.6 km/h 98 % 0 mm
06:46 20.5 °C 20.2 °C 1016.1 hPa Calm   1.6 km/h 98 % 0 mm
06:51 20.4 °C 20.1 °C 1016.1 hPa Calm   1.6 km/h 98 % 0 mm
06:56 20.4 °C 20.1 °C 1016.1 hPa Calm   1.6 km/h 98 % 0 mm
07:01 20.4 °C 20.1 °C 1016.1 hPa Calm   1.6 km/h 98 % 0 mm
07:06 20.4 °C 20.1 °C 1016.5 hPa Calm   1.6 km/h 98 % 0 mm
07:11 20.4 °C 20.1 °C 1016.5 hPa Calm   1.6 km/h 98 % 0 mm
07:16 20.4 °C 20.1 °C 1016.5 hPa Calm   1.6 km/h 98 % 0 mm
07:21 20.5 °C 20.2 °C 1016.5 hPa Calm   1.6 km/h 98 % 0 mm
07:26 20.5 °C 20.2 °C 1016.5 hPa Calm   1.6 km/h 98 % 0 mm
07:31 20.6 °C 20.3 °C 1016.5 hPa Calm   1.6 km/h 98 % 0 mm
07:36 20.7 °C 20.5 °C 1016.8 hPa Calm   1.6 km/h 99 % 0 mm
07:41 20.9 °C 20.7 °C 1016.8 hPa Calm   1.6 km/h 99 % 0 mm
07:46 21.2 °C 21 °C 1016.8 hPa Calm   1.6 km/h 99 % 0 mm
07:51 21.3 °C 21.1 °C 1016.8 hPa Calm   1.6 km/h 99 % 0 mm
07:56 21.6 °C 21.4 °C 1016.8 hPa Calm   1.6 km/h 99 % 0 mm
08:02 21.7 °C 21.5 °C 1017.2 hPa Calm   1.6 km/h 99 % 0 mm
08:07 21.8 °C 21.6 °C 1017.2 hPa Calm   1.6 km/h 99 % 0 mm
08:12 22 °C 21.8 °C 1017.2 hPa Calm   1.6 km/h 99 % 0 mm
08:17 22 °C 21.7 °C 1017.2 hPa Calm   3.2 km/h 98 % 0 mm
08:22 22.1 °C 21.8 °C 1017.2 hPa Calm   3.2 km/h 98 % 0 mm
08:27 22.3 °C 22 °C 1017.2 hPa SE 1.6 km/h 3.2 km/h 98 % 0 mm
08:32 22.6 °C 22.3 °C 1017.2 hPa SE 3.2 km/h 3.2 km/h 98 % 0 mm
08:37 22.6 °C 22.3 °C 1017.2 hPa East 3.2 km/h 4.8 km/h 98 % 0 mm
08:42 22.8 °C 22.3 °C 1017.2 hPa ESE 1.6 km/h 8 km/h 97 % 0 mm
08:43 22.8 °C 22.3 °C 1017.2 hPa ESE 3.2 km/h 8 km/h 97 % 0 mm
08:48 23 °C 22.5 °C 1017.2 hPa SSE 3.2 km/h 8 km/h 97 % 0 mm
08:53 23.1 °C 22.4 °C 1017.2 hPa SE 8 km/h 8 km/h 96 % 0 mm
08:58 23.2 °C 22.4 °C 1017.2 hPa South 4.8 km/h 9.7 km/h 95 % 0 mm
09:03 23.3 °C 22.3 °C 1017.2 hPa ESE 4.8 km/h 9.7 km/h 94 % 0 mm
09:08 23.3 °C 22.3 °C 1017.2 hPa SE 1.6 km/h 9.7 km/h 94 % 0 mm
09:09 23.3 °C 22.3 °C 1017.2 hPa SE 1.6 km/h 9.7 km/h 94 % 0 mm
09:14 23.4 °C 22.2 °C 1017.2 hPa South 1.6 km/h 9.7 km/h 93 % 0 mm
09:19 23.4 °C 22.2 °C 1017.2 hPa SSE 3.2 km/h 11.3 km/h 93 % 0 mm
09:24 23.4 °C 22 °C 1017.2 hPa South 4.8 km/h 11.3 km/h 92 % 0 mm
09:29 23.5 °C 21.9 °C 1017.2 hPa SSW 9.7 km/h 12.9 km/h 91 % 0 mm
09:34 23.8 °C 22.2 °C 1017.2 hPa SSE 4.8 km/h 12.9 km/h 91 % 0 mm
09:35 23.8 °C 22.2 °C 1017.5 hPa SSE 4.8 km/h 12.9 km/h 91 % 0 mm
09:40 24.2 °C 22.1 °C 1017.2 hPa ESE 4.8 km/h 14.5 km/h 88 % 0 mm
09:45 24.7 °C 22.2 °C 1017.2 hPa SSE 9.7 km/h 19.3 km/h 86 % 0 mm
09:50 25.2 °C 22.5 °C 1017.2 hPa SSE 4.8 km/h 19.3 km/h 85 % 0 mm
09:52 25.3 °C 22.4 °C 1017.2 hPa South 9.7 km/h 19.3 km/h 84 % 0 mm
09:57 25.4 °C 21.5 °C 1017.5 hPa South 9.7 km/h 19.3 km/h 79 % 0 mm
10:02 25.2 °C 21.5 °C 1017.5 hPa SE 9.7 km/h 16.1 km/h 80 % 0 mm
10:07 25 °C 21.9 °C 1017.5 hPa SSE 3.2 km/h 16.1 km/h 83 % 0 mm
10:12 24.9 °C 21.6 °C 1017.5 hPa SE 6.4 km/h 16.1 km/h 82 % 0 mm
10:17 25.2 °C 21.9 °C 1017.5 hPa SE 3.2 km/h 16.1 km/h 82 % 0 mm
10:22 25.6 °C 21.7 °C 1017.5 hPa SSE 9.7 km/h 19.3 km/h 79 % 0 mm
10:27 25.9 °C 21.6 °C 1017.5 hPa SE 9.7 km/h 19.3 km/h 77 % 0 mm
10:32 26.1 °C 21.5 °C 1017.5 hPa SE 9.7 km/h 19.3 km/h 76 % 0 mm
10:37 26.3 °C 21.1 °C 1017.5 hPa SE 11.3 km/h 20.9 km/h 73 % 0 mm
10:42 26.6 °C 20.9 °C 1017.5 hPa South 17.7 km/h 20.9 km/h 71 % 0 mm
10:47 26.8 °C 20.9 °C 1017.5 hPa ESE 17.7 km/h 20.9 km/h 70 % 0 mm
10:52 26.5 °C 20.8 °C 1017.5 hPa South 12.9 km/h 25.7 km/h 71 % 0 mm
10:57 26.6 °C 21.6 °C 1017.5 hPa South 6.4 km/h 25.7 km/h 74 % 0 mm
11:02 26.5 °C 21.9 °C 1017.5 hPa South 4.8 km/h 25.7 km/h 76 % 0 mm
11:07 26.8 °C 21.8 °C 1017.5 hPa SE 8 km/h 12.9 km/h 74 % 0 mm
11:12 26.8 °C 21.8 °C 1017.5 hPa SSE 1.6 km/h 12.9 km/h 74 % 0 mm
11:17 27 °C 21.7 °C 1017.5 hPa South 9.7 km/h 16.1 km/h 73 % 0 mm
11:22 27.3 °C 21.6 °C 1017.5 hPa SE 8 km/h 16.1 km/h 71 % 0 mm
11:27 26.9 °C 21.2 °C 1017.5 hPa SSW 6.4 km/h 16.1 km/h 71 % 0 mm
11:32 26.7 °C 21.5 °C 1017.5 hPa East 3.2 km/h 14.5 km/h 73 % 0 mm
11:37 27.1 °C 21.6 °C 1017.5 hPa SSE 8 km/h 12.9 km/h 72 % 0 mm
11:42 27.4 °C 21.9 °C 1017.5 hPa SE 9.7 km/h 12.9 km/h 72 % 0 mm
11:47 27.7 °C 21.3 °C 1017.2 hPa SW 6.4 km/h 12.9 km/h 68 % 0 mm
11:52 27.7 °C 21.3 °C 1017.2 hPa SE 6.4 km/h 12.9 km/h 68 % 0 mm
11:57 27.8 °C 21.3 °C 1017.2 hPa SE 6.4 km/h 12.9 km/h 68 % 0 mm
12:02 27.9 °C 21.2 °C 1017.2 hPa SE 4.8 km/h 12.9 km/h 67 % 0 mm
12:07 28.2 °C 21.7 °C 1017.2 hPa SE 12.9 km/h 12.9 km/h 68 % 0 mm
12:12 28.3 °C 21.6 °C 1017.2 hPa SW 1.6 km/h 14.5 km/h 67 % 0 mm
12:17 28.4 °C 21.2 °C 1017.2 hPa South 4.8 km/h 14.5 km/h 65 % 0 mm
12:18 28.4 °C 21.4 °C 1017.2 hPa SW 1.6 km/h 14.5 km/h 66 % 0 mm
12:23 28.7 °C 21.7 °C 1017.2 hPa SSE 3.2 km/h 14.5 km/h 66 % 0 mm
12:28 28.7 °C 21.2 °C 1017.2 hPa SSE 3.2 km/h 12.9 km/h 64 % 0 mm
12:33 28.8 °C 21.3 °C 1016.8 hPa SSW 6.4 km/h 12.9 km/h 64 % 0 mm
12:38 28.9 °C 21.1 °C 1016.8 hPa ENE 8 km/h 14.5 km/h 63 % 0 mm
12:43 29.1 °C 21.3 °C 1016.8 hPa SSW 6.4 km/h 14.5 km/h 63 % 0 mm
12:48 29.1 °C 21.3 °C 1016.8 hPa ESE 4.8 km/h 14.5 km/h 63 % 0 mm
12:53 29.1 °C 21.3 °C 1016.8 hPa SE 3.2 km/h 14.5 km/h 63 % 0 mm
12:58 29.2 °C 21.2 °C 1016.5 hPa SSE 8 km/h 14.5 km/h 62 % 0 mm
13:03 28.8 °C 20.8 °C 1016.5 hPa ESE 8 km/h 14.5 km/h 62 % 0 mm
13:08 29 °C 21.5 °C 1016.5 hPa East 9.7 km/h 14.5 km/h 64 % 0 mm
13:13 29.1 °C 21.1 °C 1016.5 hPa ESE 6.4 km/h 16.1 km/h 62 % 0 mm
13:18 29.4 °C 21.1 °C 1016.5 hPa South 3.2 km/h 16.1 km/h 61 % 0 mm
13:23 29.5 °C 20.4 °C 1016.5 hPa SSE 9.7 km/h 16.1 km/h 58 % 0 mm
13:28 29.4 °C 20.5 °C 1016.1 hPa East 4.8 km/h 14.5 km/h 59 % 0 mm
13:33 29.9 °C 21.6 °C 1016.1 hPa Calm   14.5 km/h 61 % 0 mm
13:38 30.1 °C 20.6 °C 1016.1 hPa ESE 8 km/h 14.5 km/h 57 % 0 mm
13:43 29.6 °C 20.2 °C 1016.1 hPa ESE 8 km/h 25.7 km/h 57 % 0 mm
13:48 29.4 °C 20.8 °C 1016.1 hPa ESE 11.3 km/h 25.7 km/h 60 % 0 mm
13:53 29.4 °C 20.5 °C 1015.8 hPa SSE 6.4 km/h 25.7 km/h 59 % 0 mm
13:58 29.6 °C 20.5 °C 1015.8 hPa ESE 6.4 km/h 16.1 km/h 58 % 0 mm
14:03 29.2 °C 20.4 °C 1015.8 hPa ESE 4.8 km/h 16.1 km/h 59 % 0 mm
14:08 28.9 °C 20.4 °C 1015.8 hPa East 6.4 km/h 16.1 km/h 60 % 0 mm
14:13 28.9 °C 20.6 °C 1015.5 hPa NE 1.6 km/h 14.5 km/h 61 % 0 mm
14:18 29.2 °C 20.4 °C 1015.5 hPa SE 6.4 km/h 9.7 km/h 59 % 0 mm
14:23 29.1 °C 20.8 °C 1015.5 hPa SSE 6.4 km/h 16.1 km/h 61 % 0 mm
14:29 29.2 °C 20.1 °C 1015.5 hPa East 6.4 km/h 16.1 km/h 58 % 0 mm
14:34 29.1 °C 20.5 °C 1015.5 hPa South 8 km/h 16.1 km/h 60 % 0 mm
14:39 28.9 °C 20.6 °C 1015.5 hPa SE 1.6 km/h 16.1 km/h 61 % 0 mm
14:44 29.1 °C 21.3 °C 1015.5 hPa SSE 4.8 km/h 16.1 km/h 63 % 0 mm
14:49 29.7 °C 21.6 °C 1015.5 hPa SSE 6.4 km/h 11.3 km/h 62 % 0 mm
14:54 30.1 °C 20.6 °C 1015.5 hPa SE 9.7 km/h 14.5 km/h 57 % 0 mm
14:59 30.2 °C 20.7 °C 1015.1 hPa SSW 8 km/h 17.7 km/h 57 % 0 mm
15:04 30.4 °C 20.3 °C 1015.1 hPa East 1.6 km/h 17.7 km/h 55 % 0 mm
15:09 29.8 °C 20.6 °C 1015.1 hPa SE 11.3 km/h 17.7 km/h 58 % 0 mm
15:14 29.4 °C 20.8 °C 1015.1 hPa ESE 4.8 km/h 17.7 km/h 60 % 0 mm
15:19 29.4 °C 20.8 °C 1014.8 hPa SE 3.2 km/h 17.7 km/h 60 % 0 mm
15:24 29.4 °C 20.8 °C 1014.8 hPa SSW 3.2 km/h 17.7 km/h 60 % 0 mm
15:29 29.3 °C 20.7 °C 1014.8 hPa South 8 km/h 12.9 km/h 60 % 0 mm
15:34 29.1 °C 21.1 °C 1014.4 hPa ESE 4.8 km/h 14.5 km/h 62 % 0 mm
15:39 29.1 °C 21.1 °C 1014.4 hPa East 3.2 km/h 14.5 km/h 62 % 0 mm
15:44 29.1 °C 21.3 °C 1014.4 hPa WSW 4.8 km/h 14.5 km/h 63 % 0 mm
15:49 29.2 °C 21.7 °C 1014.4 hPa SSE 1.6 km/h 9.7 km/h 64 % 0 mm
15:54 29.1 °C 21.3 °C 1014.4 hPa Calm   9.7 km/h 63 % 0 mm
15:59 29.3 °C 21.5 °C 1014.1 hPa Calm   9.7 km/h 63 % 0 mm
16:04 29.4 °C 21.4 °C 1014.1 hPa ESE 3.2 km/h 8 km/h 62 % 0 mm
16:09 29.4 °C 21.1 °C 1014.1 hPa SSE 1.6 km/h 12.9 km/h 61 % 0 mm
16:14 29.6 °C 21.5 °C 1014.1 hPa ESE 4.8 km/h 12.9 km/h 62 % 0 mm
16:19 29.6 °C 21 °C 1013.8 hPa Calm   12.9 km/h 60 % 0 mm
16:24 29.3 °C 21 °C 1013.8 hPa ENE 3.2 km/h 11.3 km/h 61 % 0 mm
16:29 29.2 °C 20.9 °C 1013.8 hPa North 6.4 km/h 9.7 km/h 61 % 0 mm
16:34 29.1 °C 21.1 °C 1013.8 hPa ESE 4.8 km/h 9.7 km/h 62 % 0 mm
16:39 29.1 °C 21.1 °C 1013.8 hPa SSE 6.4 km/h 9.7 km/h 62 % 0 mm
16:44 29 °C 21 °C 1013.8 hPa Calm   9.7 km/h 62 % 0 mm
16:49 29 °C 21.2 °C 1013.8 hPa SE 3.2 km/h 11.3 km/h 63 % 0 mm
16:54 29 °C 21 °C 1013.8 hPa SE 6.4 km/h 11.3 km/h 62 % 0 mm
16:59 28.9 °C 20.9 °C 1013.8 hPa ESE 3.2 km/h 11.3 km/h 62 % 0 mm
17:04 28.9 °C 20.9 °C 1013.8 hPa SE 3.2 km/h 11.3 km/h 62 % 0 mm
17:09 29.1 °C 21.1 °C 1013.8 hPa ESE 3.2 km/h 11.3 km/h 62 % 0 mm
17:14 29.1 °C 20.8 °C 1013.8 hPa SE 3.2 km/h 9.7 km/h 61 % 0 mm
17:19 29 °C 21.2 °C 1013.8 hPa SE 8 km/h 14.5 km/h 63 % 0 mm
17:24 28.8 °C 21.3 °C 1013.8 hPa East 8 km/h 14.5 km/h 64 % 0 mm
17:29 28.7 °C 21.5 °C 1013.8 hPa ENE 1.6 km/h 14.5 km/h 65 % 0 mm
17:34 28.6 °C 21.6 °C 1013.8 hPa ESE 1.6 km/h 12.9 km/h 66 % 0 mm
17:39 28.4 °C 21.2 °C 1013.8 hPa ESE 1.6 km/h 12.9 km/h 65 % 0 mm
17:44 28.4 °C 21.4 °C 1013.8 hPa Calm   12.9 km/h 66 % 0 mm
17:49 28.3 °C 21.1 °C 1013.8 hPa SE 9.7 km/h 9.7 km/h 65 % 0 mm
17:54 28.3 °C 21.1 °C 1013.8 hPa ESE 1.6 km/h 12.9 km/h 65 % 0 mm
17:59 28.4 °C 21.2 °C 1013.8 hPa SSE 4.8 km/h 12.9 km/h 65 % 0 mm
18:04 28.3 °C 21.3 °C 1013.8 hPa SE 4.8 km/h 12.9 km/h 66 % 0 mm
18:09 28.2 °C 21.2 °C 1013.8 hPa SE 9.7 km/h 12.9 km/h 66 % 0 mm
18:14 28.1 °C 21.6 °C 1013.4 hPa ESE 8 km/h 14.5 km/h 68 % 0 mm
18:19 27.9 °C 21.4 °C 1013.8 hPa SE 1.6 km/h 14.5 km/h 68 % 0 mm
18:24 27.8 °C 21.3 °C 1013.8 hPa SE 1.6 km/h 14.5 km/h 68 % 0 mm
18:29 27.8 °C 21.6 °C 1013.8 hPa ESE 4.8 km/h 14.5 km/h 69 % 0 mm
18:34 27.7 °C 21.3 °C 1013.4 hPa East 4.8 km/h 14.5 km/h 68 % 0 mm
18:39 27.6 °C 21.2 °C 1013.8 hPa SE 4.8 km/h 17.7 km/h 68 % 0 mm
18:44 27.6 °C 21.4 °C 1013.8 hPa East 4.8 km/h 17.7 km/h 69 % 0 mm
18:49 27.5 °C 21.3 °C 1013.8 hPa SE 3.2 km/h 17.7 km/h 69 % 0 mm
18:54 27.4 °C 21.2 °C 1013.8 hPa SE 6.4 km/h 12.9 km/h 69 % 0 mm
18:59 27.4 °C 21.2 °C 1013.8 hPa ESE 9.7 km/h 11.3 km/h 69 % 0 mm
19:00 27.4 °C 21.2 °C 1013.8 hPa SE 4.8 km/h 11.3 km/h 69 % 0 mm
19:05 27.4 °C 21.2 °C 1013.8 hPa ESE 4.8 km/h 14.5 km/h 69 % 0 mm
19:10 27.4 °C 21.2 °C 1013.4 hPa SE 3.2 km/h 14.5 km/h 69 % 0 mm
19:15 27.4 °C 21.2 °C 1013.8 hPa SE 3.2 km/h 14.5 km/h 69 % 0 mm
19:20 27.3 °C 21.3 °C 1013.8 hPa SE 1.6 km/h 11.3 km/h 70 % 0 mm
19:25 27.2 °C 21.2 °C 1013.8 hPa East 6.4 km/h 9.7 km/h 70 % 0 mm
19:30 27.2 °C 21 °C 1013.8 hPa SSE 4.8 km/h 9.7 km/h 69 % 0 mm
19:35 27.2 °C 21 °C 1013.8 hPa Calm   11.3 km/h 69 % 0 mm
19:40 27.2 °C 21 °C 1013.8 hPa SE 9.7 km/h 11.3 km/h 69 % 0 mm
19:45 27.1 °C 20.9 °C 1013.8 hPa East 8 km/h 11.3 km/h 69 % 0 mm
19:50 27.1 °C 20.9 °C 1013.8 hPa SE 3.2 km/h 11.3 km/h 69 % 0 mm
19:55 26.9 °C 20.7 °C 1013.8 hPa SSE 4.8 km/h 11.3 km/h 69 % 0 mm
20:00 26.8 °C 20.9 °C 1013.8 hPa South 8 km/h 12.9 km/h 70 % 0 mm
20:05 26.7 °C 20.8 °C 1013.8 hPa ESE 4.8 km/h 12.9 km/h 70 % 0 mm
20:10 26.7 °C 21 °C 1013.8 hPa SE 6.4 km/h 14.5 km/h 71 % 0 mm
20:15 26.5 °C 21 °C 1013.8 hPa South 8 km/h 14.5 km/h 72 % 0 mm
20:20 26.3 °C 20.8 °C 1013.8 hPa SSE 11.3 km/h 12.9 km/h 72 % 0 mm
20:25 26.2 °C 21 °C 1014.1 hPa South 6.4 km/h 11.3 km/h 73 % 0 mm
20:30 26.1 °C 21.1 °C 1014.1 hPa SSE 9.7 km/h 16.1 km/h 74 % 0 mm
20:35 25.9 °C 21.1 °C 1014.1 hPa SSE 8 km/h 16.1 km/h 75 % 0 mm
20:40 25.8 °C 21 °C 1014.1 hPa South 4.8 km/h 16.1 km/h 75 % 0 mm
20:45 25.7 °C 20.9 °C 1014.1 hPa SSE 4.8 km/h 12.9 km/h 75 % 0 mm
20:50 25.7 °C 20.9 °C 1014.4 hPa South 4.8 km/h 12.9 km/h 75 % 0 mm
20:55 25.6 °C 20.8 °C 1014.4 hPa SE 9.7 km/h 12.9 km/h 75 % 0 mm
21:00 25.4 °C 20.6 °C 1014.4 hPa SSW 6.4 km/h 14.5 km/h 75 % 0 mm
21:05 25.4 °C 20.9 °C 1014.4 hPa SSE 6.4 km/h 14.5 km/h 76 % 0 mm
21:10 25.2 °C 20.7 °C 1014.4 hPa ESE 3.2 km/h 14.5 km/h 76 % 0 mm
21:15 25.2 °C 20.9 °C 1014.4 hPa ESE 4.8 km/h 9.7 km/h 77 % 0 mm
21:20 25.1 °C 20.8 °C 1014.4 hPa SE 3.2 km/h 9.7 km/h 77 % 0 mm
21:25 24.9 °C 20.6 °C 1014.4 hPa ESE 4.8 km/h 9.7 km/h 77 % 0 mm
21:30 24.8 °C 20.7 °C 1014.8 hPa ESE 8 km/h 11.3 km/h 78 % 0 mm
21:35 24.7 °C 20.8 °C 1014.8 hPa SSE 3.2 km/h 11.3 km/h 79 % 0 mm
21:40 24.6 °C 20.7 °C 1014.8 hPa SE 3.2 km/h 11.3 km/h 79 % 0 mm
21:45 24.5 °C 20.8 °C 1014.8 hPa SSE 3.2 km/h 11.3 km/h 80 % 0 mm
21:50 24.3 °C 20.8 °C 1014.8 hPa SE 3.2 km/h 11.3 km/h 81 % 0 mm
21:55 24.2 °C 20.7 °C 1014.8 hPa SE 3.2 km/h 11.3 km/h 81 % 0 mm
22:00 24.2 °C 20.9 °C 1015.1 hPa SE 4.8 km/h 11.3 km/h 82 % 0 mm
22:05 24.1 °C 20.8 °C 1015.1 hPa SSE 1.6 km/h 12.9 km/h 82 % 0 mm
22:11 24 °C 20.9 °C 1015.1 hPa SSE 6.4 km/h 12.9 km/h 83 % 0 mm
22:15 23.9 °C 20.8 °C 1015.1 hPa SSE 4.8 km/h 12.9 km/h 83 % 0 mm
22:20 23.8 °C 20.9 °C 1015.1 hPa SE 4.8 km/h 11.3 km/h 84 % 0 mm
22:25 23.7 °C 20.8 °C 1015.1 hPa SSE 1.6 km/h 9.7 km/h 84 % 0 mm
22:30 23.7 °C 21 °C 1015.1 hPa ESE 3.2 km/h 8 km/h 85 % 0 mm
22:35 23.7 °C 21 °C 1015.1 hPa SE 4.8 km/h 8 km/h 85 % 0 mm
22:40 23.6 °C 20.9 °C 1015.1 hPa ESE 9.7 km/h 9.7 km/h 85 % 0 mm
22:46 23.5 °C 21 °C 1015.1 hPa SE 3.2 km/h 9.7 km/h 86 % 0 mm
22:51 23.4 °C 20.9 °C 1015.1 hPa SE 1.6 km/h 9.7 km/h 86 % 0 mm
22:56 23.4 °C 20.9 °C 1015.1 hPa SSW 3.2 km/h 9.7 km/h 86 % 0 mm
23:01 23.3 °C 21 °C 1015.1 hPa South 1.6 km/h 9.7 km/h 87 % 0 mm
23:06 23.2 °C 20.9 °C 1015.1 hPa SSE 3.2 km/h 9.7 km/h 87 % 0 mm
23:11 23 °C 20.9 °C 1015.1 hPa SE 1.6 km/h 8 km/h 88 % 0 mm
23:16 22.9 °C 20.8 °C 1015.1 hPa SSE 3.2 km/h 6.4 km/h 88 % 0 mm
23:21 22.9 °C 21 °C 1015.1 hPa SE 4.8 km/h 8 km/h 89 % 0 mm
23:26 22.9 °C 21 °C 1015.1 hPa SSE 4.8 km/h 8 km/h 89 % 0 mm
23:31 22.9 °C 21 °C 1015.1 hPa SE 3.2 km/h 8 km/h 89 % 0 mm
23:36 22.8 °C 20.9 °C 1015.1 hPa SE 4.8 km/h 8 km/h 89 % 0 mm
23:41 22.8 °C 21.1 °C 1015.1 hPa SSE 3.2 km/h 8 km/h 90 % 0 mm
23:46 22.7 °C 21 °C 1014.8 hPa South 3.2 km/h 8 km/h 90 % 0 mm
23:51 22.7 °C 21 °C 1014.8 hPa SSE 3.2 km/h 8 km/h 90 % 0 mm
23:56 22.7 °C 21.2 °C 1014.8 hPa SSE 4.8 km/h 8 km/h 91 % 0 mm
Spring, Texas: Villages of Bridgestone
Compliments of Weather Underground - 2.75 mb

Script developed by  Jim McMurry - jmcmurry@mwt.net Adapted for the template by  Wim van der Kuil - Leuven-Template.eu

You find our weather info also at:

UK Metoffice

WeatherCloud

Weather Underground

Mid-South Weather Network

AWEKAS

Citizen Weather Observer Program (CWOP)

HAMweather, WeatherForYou, PWS Weather

Equipment we use:

Weather-station
Davis Vantage Vue

Weather-program
Meteohub

Weather-server
Debian 7.9 x86 (Guest)

Provider
DreamHost

Davis Vantage Vue

Meteohub

Debian 7.9 x86 (Guest)

DreamHost